Time;durP1;ratioP1;P1;durP2;ratioP2;P2;SDS_P1;SDS_P2;PMS_P1;PMS_P2;Temp;Humidity;BMP_temperature;BMP_pressure;BME280_temperature;BME280_humidity;BME280_pressure;Samples;Min_cycle;Max_cycle;Signal;HPM_P1;HPM_P2
2022/09/16 00:02:22;;;;;;;3.25;0.57;;;;;;;;;;4985059;28;20034;-78
2022/09/16 00:04:48;;;;;;;3.53;0.50;;;;;;;;;;4979727;28;20480;-78
2022/09/16 00:07:14;;;;;;;5.55;2.83;;;;;;;;;;4987164;28;20058;-79
2022/09/16 00:09:40;;;;;;;6.78;1.90;;;;;;;;;;4987661;28;20476;-78
2022/09/16 00:12:07;;;;;;;3.40;0.88;;;;;;;;;;4990536;28;20415;-78
2022/09/16 00:14:33;;;;;;;4.13;0.77;;;;;;;;;;4991269;28;20042;-78
2022/09/16 00:16:59;;;;;;;5.78;0.80;;;;;;;;;;4988821;28;20101;-78
2022/09/16 00:19:25;;;;;;;2.80;0.40;;;;;;;;;;4981056;28;20551;-79
2022/09/16 00:21:50;;;;;;;5.68;0.60;;;;;;;;;;4989684;28;20096;-78
2022/09/16 00:24:16;;;;;;;2.90;0.60;;;;;;;;;;4990334;28;20397;-79
2022/09/16 00:26:43;;;;;;;6.28;0.80;;;;;;;;;;4988014;28;20118;-79
2022/09/16 00:29:09;;;;;;;2.90;0.90;;;;;;;;;;4981306;28;20761;-78
2022/09/16 00:31:36;;;;;;;3.92;0.70;;;;;;;;;;4979425;28;20039;-78
2022/09/16 00:34:02;;;;;;;8.88;1.23;;;;;;;;;;4989713;28;20035;-79
2022/09/16 00:36:29;;;;;;;4.45;1.08;;;;;;;;;;4990905;28;20540;-78
2022/09/16 00:38:55;;;;;;;2.90;0.80;;;;;;;;;;4984639;28;20034;-78
2022/09/16 00:41:26;;;;;;;5.90;1.00;;;;;;;;;;4990502;28;20468;-78
2022/09/16 00:43:54;;;;;;;6.47;0.80;;;;;;;;;;4984289;28;20038;-79
2022/09/16 00:46:23;;;;;;;2.50;0.77;;;;;;;;;;4995014;28;20030;-78
2022/09/16 00:48:49;;;;;;;6.97;4.45;;;;;;;;;;4983226;28;20035;-78
2022/09/16 00:51:16;;;;;;;9.38;3.45;;;;;;;;;;4988024;28;20037;-78
2022/09/16 00:53:48;;;;;;;6.50;3.00;;;;;;;;;;4989487;28;20030;-79
2022/09/16 00:56:16;;;;;;;6.82;4.90;;;;;;;;;;4983446;28;20062;-79
2022/09/16 00:58:45;;;;;;;5.53;3.45;;;;;;;;;;4985683;28;20022;-79
2022/09/16 01:01:11;;;;;;;10.43;6.00;;;;;;;;;;4988743;28;20038;-78
2022/09/16 01:03:39;;;;;;;14.00;12.57;;;;;;;;;;4984616;28;20041;-79
2022/09/16 01:06:06;;;;;;;15.77;14.20;;;;;;;;;;4987690;28;20072;-78
2022/09/16 01:08:32;;;;;;;13.23;11.98;;;;;;;;;;4989531;28;20042;-78
2022/09/16 01:10:58;;;;;;;12.88;8.95;;;;;;;;;;4981841;28;20038;-78
2022/09/16 01:13:24;;;;;;;5.75;2.97;;;;;;;;;;4981241;28;20038;-78
2022/09/16 01:15:52;;;;;;;6.05;1.65;;;;;;;;;;4976029;28;20436;-78
2022/09/16 01:18:25;;;;;;;2.92;1.00;;;;;;;;;;4985311;28;20101;-79
2022/09/16 01:20:51;;;;;;;12.68;3.95;;;;;;;;;;4985243;28;20041;-78
2022/09/16 01:23:17;;;;;;;8.70;5.75;;;;;;;;;;4986545;28;20039;-79
2022/09/16 01:26:01;;;;;;;3.15;1.40;;;;;;;;;;4971609;28;20441;-78
2022/09/16 01:28:46;;;;;;;3.38;0.88;;;;;;;;;;4984323;28;20427;-78
2022/09/16 01:31:12;;;;;;;8.32;1.10;;;;;;;;;;4976168;28;20046;-78
2022/09/16 01:33:48;;;;;;;5.68;1.30;;;;;;;;;;4987115;28;20030;-78
2022/09/16 01:36:38;;;;;;;4.03;1.00;;;;;;;;;;4974601;28;20038;-78
2022/09/16 01:39:16;;;;;;;2.72;0.93;;;;;;;;;;4979662;28;20051;-78
2022/09/16 01:42:00;;;;;;;5.13;0.80;;;;;;;;;;4987283;28;20037;-78
2022/09/16 01:44:29;;;;;;;5.10;0.88;;;;;;;;;;4982628;28;20042;-78
2022/09/16 01:47:02;;;;;;;8.00;0.60;;;;;;;;;;4989022;28;20120;-78
2022/09/16 01:49:34;;;;;;;5.00;0.80;;;;;;;;;;4982746;28;20038;-78
2022/09/16 01:52:06;;;;;;;7.35;1.40;;;;;;;;;;4982318;28;20047;-78
2022/09/16 01:54:37;;;;;;;5.35;0.88;;;;;;;;;;4994589;28;20108;-77
2022/09/16 01:57:26;;;;;;;3.10;0.80;;;;;;;;;;4990521;28;20060;-77
2022/09/16 02:00:04;;;;;;;5.40;1.05;;;;;;;;;;4958588;28;20970;-78
2022/09/16 02:02:36;;;;;;;7.15;1.02;;;;;;;;;;4985830;28;20176;-78
2022/09/16 02:05:02;;;;;;;;;;;;;;;;;;4972803;28;20035;-78
2022/09/16 02:07:31;;;;;;;4.25;1.20;;;;;;;;;;4979105;28;19921;-78
2022/09/16 02:09:59;;;;;;;4.70;1.20;;;;;;;;;;4981137;28;20034;-78
2022/09/16 02:12:30;;;;;;;4.25;1.30;;;;;;;;;;4983343;28;20030;-78
2022/09/16 02:15:00;;;;;;;4.20;1.17;;;;;;;;;;4987477;28;20121;-78
2022/09/16 02:17:27;;;;;;;6.80;1.45;;;;;;;;;;4986847;28;20029;-78
2022/09/16 02:20:08;;;;;;;5.50;1.70;;;;;;;;;;4988109;28;20075;-78
2022/09/16 02:22:37;;;;;;;5.93;1.40;;;;;;;;;;4987097;28;20045;-78
2022/09/16 02:25:04;;;;;;;3.83;0.90;;;;;;;;;;4984267;28;20473;-78
2022/09/16 02:27:31;;;;;;;3.75;0.95;;;;;;;;;;4979655;28;20034;-78
2022/09/16 02:30:01;;;;;;;7.13;0.80;;;;;;;;;;4981041;28;20053;-78
2022/09/16 02:32:28;;;;;;;8.00;1.30;;;;;;;;;;4982396;28;20039;-78
2022/09/16 02:34:55;;;;;;;6.18;0.73;;;;;;;;;;4986075;28;20034;-78
2022/09/16 02:37:24;;;;;;;2.53;0.73;;;;;;;;;;4987083;28;20034;-78
2022/09/16 02:39:53;;;;;;;5.60;0.77;;;;;;;;;;4979758;28;20687;-78
2022/09/16 02:42:19;;;;;;;3.45;0.80;;;;;;;;;;4979894;28;20108;-78
2022/09/16 02:44:46;;;;;;;4.32;0.80;;;;;;;;;;4988279;28;20038;-78
2022/09/16 02:47:30;;;;;;;5.63;0.80;;;;;;;;;;4985358;28;20027;-78
2022/09/16 02:50:10;;;;;;;5.50;0.90;;;;;;;;;;4983062;28;20484;-78
2022/09/16 02:52:42;;;;;;;3.30;1.00;;;;;;;;;;4984834;28;20031;-78
2022/09/16 02:55:09;;;;;;;4.07;1.30;;;;;;;;;;4983500;28;20137;-78
2022/09/16 02:57:35;;;;;;;6.00;1.15;;;;;;;;;;4980246;28;20034;-78
2022/09/16 03:00:02;;;;;;;7.13;1.30;;;;;;;;;;4986241;28;20043;-77
2022/09/16 03:02:28;;;;;;;4.78;1.10;;;;;;;;;;4983828;28;20034;-78
2022/09/16 03:04:54;;;;;;;5.80;1.42;;;;;;;;;;4984830;28;20046;-78
2022/09/16 03:07:20;;;;;;;3.72;0.80;;;;;;;;;;4982824;28;20050;-78
2022/09/16 03:09:47;;;;;;;4.40;0.70;;;;;;;;;;4984886;28;20654;-78
2022/09/16 03:12:25;;;;;;;3.28;0.90;;;;;;;;;;4975505;28;20110;-78
2022/09/16 03:14:52;;;;;;;2.83;0.70;;;;;;;;;;4987449;28;20038;-78
2022/09/16 03:17:30;;;;;;;1.70;0.60;;;;;;;;;;4985788;28;20069;-78
2022/09/16 03:19:59;;;;;;;6.03;1.20;;;;;;;;;;4975339;28;20123;-78
2022/09/16 03:22:25;;;;;;;5.57;0.90;;;;;;;;;;4974080;28;20057;-78
2022/09/16 03:25:10;;;;;;;3.67;0.70;;;;;;;;;;4977581;28;20035;-78
2022/09/16 03:27:40;;;;;;;7.60;1.33;;;;;;;;;;4984016;28;20037;-78
2022/09/16 03:30:08;;;;;;;3.65;0.90;;;;;;;;;;4988758;28;20044;-78
2022/09/16 03:32:37;;;;;;;5.70;1.33;;;;;;;;;;4979067;28;20039;-78
2022/09/16 03:35:06;;;;;;;5.90;1.40;;;;;;;;;;4981107;28;20031;-78
2022/09/16 03:37:34;;;;;;;5.43;1.40;;;;;;;;;;4982426;28;20038;-78
2022/09/16 03:40:03;;;;;;;3.10;1.23;;;;;;;;;;4983957;28;20034;-78
2022/09/16 03:42:29;;;;;;;4.50;1.50;;;;;;;;;;4982365;28;20088;-78
2022/09/16 03:44:56;;;;;;;6.03;1.60;;;;;;;;;;4983446;28;20047;-78
2022/09/16 03:47:22;;;;;;;7.60;1.40;;;;;;;;;;4977759;28;20030;-78
2022/09/16 03:49:49;;;;;;;5.07;1.65;;;;;;;;;;4991297;28;20542;-78
2022/09/16 03:52:17;;;;;;;6.43;1.70;;;;;;;;;;4989952;28;20061;-78
2022/09/16 03:54:43;;;;;;;7.57;1.60;;;;;;;;;;4985140;28;20038;-78
2022/09/16 03:57:10;;;;;;;7.00;1.70;;;;;;;;;;4982763;28;20035;-78
2022/09/16 03:59:36;;;;;;;6.35;1.55;;;;;;;;;;4980603;28;20041;-78
2022/09/16 04:02:02;;;;;;;11.95;2.13;;;;;;;;;;4989606;28;20034;-78
2022/09/16 04:04:28;;;;;;;6.90;2.35;;;;;;;;;;4990697;28;20476;-78
2022/09/16 04:06:54;;;;;;;9.30;4.30;;;;;;;;;;4985360;28;20055;-79
2022/09/16 04:09:20;;;;;;;8.73;5.70;;;;;;;;;;4982621;28;20045;-78
2022/09/16 04:11:46;;;;;;;9.90;8.68;;;;;;;;;;4977229;28;20049;-78
2022/09/16 04:14:12;;;;;;;15.98;10.32;;;;;;;;;;4984683;28;20117;-78
2022/09/16 04:16:38;;;;;;;9.25;7.65;;;;;;;;;;4987440;28;20040;-78
2022/09/16 04:19:04;;;;;;;8.52;5.55;;;;;;;;;;4987872;28;20114;-78
2022/09/16 04:21:30;;;;;;;11.43;4.07;;;;;;;;;;4986054;28;20595;-78
2022/09/16 04:23:56;;;;;;;10.32;3.88;;;;;;;;;;4978967;28;20106;-78
2022/09/16 04:26:22;;;;;;;8.20;6.18;;;;;;;;;;4986661;28;20038;-78
2022/09/16 04:28:48;;;;;;;12.35;6.68;;;;;;;;;;4989787;28;20034;-78
2022/09/16 04:31:15;;;;;;;12.07;6.65;;;;;;;;;;4988590;28;20030;-78
2022/09/16 04:33:41;;;;;;;8.48;5.63;;;;;;;;;;4974577;28;20484;-78
2022/09/16 04:36:11;;;;;;;9.02;4.90;;;;;;;;;;4987969;28;20034;-78
2022/09/16 04:38:37;;;;;;;9.63;5.15;;;;;;;;;;4986304;28;20026;-78
2022/09/16 04:41:04;;;;;;;10.73;4.10;;;;;;;;;;4988887;28;20049;-78
2022/09/16 04:43:30;;;;;;;7.72;2.92;;;;;;;;;;4988986;28;20057;-78
2022/09/16 04:45:56;;;;;;;6.72;1.83;;;;;;;;;;4986104;28;20081;-78
2022/09/16 04:48:24;;;;;;;9.45;1.55;;;;;;;;;;4990338;28;20153;-78
2022/09/16 04:50:50;;;;;;;8.07;1.65;;;;;;;;;;4988898;28;20045;-78
2022/09/16 04:53:16;;;;;;;5.43;1.20;;;;;;;;;;4980426;28;20035;-78
2022/09/16 04:55:42;;;;;;;5.28;1.17;;;;;;;;;;4978245;28;20074;-78
2022/09/16 04:58:08;;;;;;;3.20;1.20;;;;;;;;;;4983927;28;20088;-78
2022/09/16 05:00:34;;;;;;;4.88;1.60;;;;;;;;;;4982396;28;21330;-78
2022/09/16 05:03:00;;;;;;;3.75;1.00;;;;;;;;;;4982906;28;20034;-78
2022/09/16 05:05:26;;;;;;;4.35;1.00;;;;;;;;;;4989074;28;20727;-78
2022/09/16 05:07:52;;;;;;;4.18;0.90;;;;;;;;;;4969453;28;20058;-78
2022/09/16 05:10:18;;;;;;;9.25;0.98;;;;;;;;;;4956509;28;20047;-78
2022/09/16 05:12:44;;;;;;;6.60;1.50;;;;;;;;;;4957127;28;20039;-78
2022/09/16 05:15:10;;;;;;;6.50;1.15;;;;;;;;;;4972767;28;20133;-78
2022/09/16 05:17:36;;;;;;;5.25;1.00;;;;;;;;;;4963484;28;20479;-78
2022/09/16 05:20:02;;;;;;;3.45;1.00;;;;;;;;;;4963614;28;20038;-78
2022/09/16 05:22:28;;;;;;;5.93;1.15;;;;;;;;;;4974520;28;20868;-78
2022/09/16 05:24:54;;;;;;;4.63;1.45;;;;;;;;;;4967052;28;20113;-78
2022/09/16 05:27:21;;;;;;;6.05;1.17;;;;;;;;;;4948032;28;20035;-78
2022/09/16 05:29:47;;;;;;;4.60;1.20;;;;;;;;;;4969339;28;20047;-78
2022/09/16 05:32:13;;;;;;;4.65;1.42;;;;;;;;;;4966090;28;20031;-78
2022/09/16 05:34:39;;;;;;;7.30;1.17;;;;;;;;;;4969423;28;20441;-78
2022/09/16 05:37:05;;;;;;;4.53;1.20;;;;;;;;;;4963998;28;20031;-77
2022/09/16 05:39:31;;;;;;;5.53;1.52;;;;;;;;;;4965575;28;20555;-78
2022/09/16 05:41:58;;;;;;;8.63;1.50;;;;;;;;;;4978316;28;20041;-78
2022/09/16 05:44:24;;;;;;;5.40;1.23;;;;;;;;;;4955837;28;20047;-78
2022/09/16 05:46:51;;;;;;;8.52;1.92;;;;;;;;;;4969339;28;20034;-78
2022/09/16 05:49:19;;;;;;;7.57;1.90;;;;;;;;;;4976856;28;20403;-78
2022/09/16 05:51:46;;;;;;;8.93;1.95;;;;;;;;;;4961011;28;20035;-79
2022/09/16 05:54:12;;;;;;;8.75;1.95;;;;;;;;;;4960515;28;20039;-78
2022/09/16 05:56:38;;;;;;;7.60;1.83;;;;;;;;;;4968209;28;20030;-78
2022/09/16 05:59:04;;;;;;;6.70;1.83;;;;;;;;;;4985232;28;20707;-78
2022/09/16 06:01:34;;;;;;;8.68;2.00;;;;;;;;;;4965478;28;20023;-79
2022/09/16 06:04:01;;;;;;;8.35;2.10;;;;;;;;;;4954082;28;20048;-78
2022/09/16 06:06:27;;;;;;;7.18;1.70;;;;;;;;;;4968210;28;20047;-78
2022/09/16 06:08:54;;;;;;;8.95;2.00;;;;;;;;;;4979023;28;20030;-78
2022/09/16 06:11:20;;;;;;;8.88;2.50;;;;;;;;;;4987858;28;20030;-78
2022/09/16 06:13:46;;;;;;;8.82;2.20;;;;;;;;;;4985716;28;20082;-79
2022/09/16 06:16:13;;;;;;;15.82;3.00;;;;;;;;;;4980628;28;20392;-78
2022/09/16 06:18:39;;;;;;;8.82;2.67;;;;;;;;;;4991703;28;20117;-78
2022/09/16 06:21:07;;;;;;;11.23;2.50;;;;;;;;;;4981270;28;20061;-78
2022/09/16 06:23:34;;;;;;;5.38;2.28;;;;;;;;;;4982181;28;20530;-78
2022/09/16 06:26:04;;;;;;;9.63;2.80;;;;;;;;;;4978089;28;20069;-79
2022/09/16 06:28:30;;;;;;;7.65;2.67;;;;;;;;;;4982308;28;20041;-79
2022/09/16 06:31:22;;;;;;;6.05;2.28;;;;;;;;;;4988041;28;20179;-78
2022/09/16 06:33:49;;;;;;;7.40;2.53;;;;;;;;;;4977866;28;20153;-78
2022/09/16 06:36:20;;;;;;;7.95;3.10;;;;;;;;;;4981973;28;20057;-78
2022/09/16 06:38:46;;;;;;;9.23;3.30;;;;;;;;;;4982408;28;20038;-79
2022/09/16 06:41:13;;;;;;;10.50;3.85;;;;;;;;;;4981470;28;20034;-78
2022/09/16 06:43:39;;;;;;;12.88;4.38;;;;;;;;;;4982574;28;20031;-78
2022/09/16 06:46:12;;;;;;;11.68;4.35;;;;;;;;;;4980452;28;20475;-78
2022/09/16 06:48:38;;;;;;;15.88;4.45;;;;;;;;;;4984087;28;20031;-77
2022/09/16 06:51:05;;;;;;;13.90;4.25;;;;;;;;;;4980641;28;20451;-79
2022/09/16 06:53:32;;;;;;;15.68;6.50;;;;;;;;;;4986633;28;20368;-78
2022/09/16 06:56:02;;;;;;;13.30;9.90;;;;;;;;;;4985284;28;20038;-78
2022/09/16 06:58:28;;;;;;;20.85;11.88;;;;;;;;;;4982299;28;20042;-78
2022/09/16 07:00:55;;;;;;;16.30;11.68;;;;;;;;;;4984443;28;20117;-78
2022/09/16 07:03:21;;;;;;;21.40;16.95;;;;;;;;;;4986628;28;20038;-78
2022/09/16 07:05:57;;;;;;;19.10;15.98;;;;;;;;;;4980812;28;20498;-78
2022/09/16 07:08:24;;;;;;;18.15;13.43;;;;;;;;;;4980944;28;20080;-79
2022/09/16 07:11:22;;;;;;;18.23;10.02;;;;;;;;;;4978427;28;20069;-79
2022/09/16 07:13:49;;;;;;;15.45;10.90;;;;;;;;;;4951994;28;20132;-79
2022/09/16 07:16:17;;;;;;;13.00;8.90;;;;;;;;;;4984508;28;20030;-78
2022/09/16 07:18:43;;;;;;;8.65;6.22;;;;;;;;;;4980054;28;20376;-78
2022/09/16 07:21:11;;;;;;;16.20;13.10;;;;;;;;;;4985218;28;20436;-78
2022/09/16 07:23:38;;;;;;;13.57;11.88;;;;;;;;;;4988789;28;20105;-78
2022/09/16 07:26:09;;;;;;;17.27;12.15;;;;;;;;;;4984915;28;20034;-78
2022/09/16 07:28:36;;;;;;;11.70;8.18;;;;;;;;;;4978508;28;20105;-78
2022/09/16 07:31:02;;;;;;;12.80;7.50;;;;;;;;;;4987264;28;20134;-78
2022/09/16 07:33:35;;;;;;;10.88;7.05;;;;;;;;;;4990157;28;20034;-78
2022/09/16 07:36:02;;;;;;;11.30;6.18;;;;;;;;;;4980664;28;20029;-78
2022/09/16 07:38:29;;;;;;;9.02;5.15;;;;;;;;;;4985775;28;20502;-79
2022/09/16 07:40:55;;;;;;;10.65;5.00;;;;;;;;;;4984209;28;20125;-78
2022/09/16 07:43:21;;;;;;;10.63;5.18;;;;;;;;;;4989283;28;20108;-78
2022/09/16 07:45:54;;;;;;;6.97;4.60;;;;;;;;;;4987471;28;20068;-78
2022/09/16 07:48:20;;;;;;;5.90;3.60;;;;;;;;;;4987106;28;20065;-78
2022/09/16 07:50:54;;;;;;;8.07;4.80;;;;;;;;;;4987808;28;20387;-78
2022/09/16 07:53:20;;;;;;;4.82;2.38;;;;;;;;;;4985896;28;20038;-78
2022/09/16 07:55:46;;;;;;;6.20;2.05;;;;;;;;;;4981433;28;20042;-78
2022/09/16 07:58:12;;;;;;;6.95;1.83;;;;;;;;;;4980047;28;20045;-78
2022/09/16 08:00:38;;;;;;;8.65;2.20;;;;;;;;;;4987022;28;20026;-78
2022/09/16 08:03:05;;;;;;;8.07;2.13;;;;;;;;;;4978370;28;20086;-78
2022/09/16 08:05:31;;;;;;;5.43;2.13;;;;;;;;;;4985034;28;20038;-78
2022/09/16 08:07:57;;;;;;;5.13;1.73;;;;;;;;;;4987654;28;20480;-78
2022/09/16 08:10:23;;;;;;;5.40;2.33;;;;;;;;;;4990147;28;20034;-78
2022/09/16 08:12:49;;;;;;;4.03;1.92;;;;;;;;;;4989963;28;20060;-78
2022/09/16 08:15:15;;;;;;;5.15;1.70;;;;;;;;;;4986697;28;20038;-79
2022/09/16 08:17:42;;;;;;;5.47;2.08;;;;;;;;;;4987547;28;20041;-78
2022/09/16 08:20:08;;;;;;;7.38;1.73;;;;;;;;;;4990708;28;20041;-78
2022/09/16 08:22:34;;;;;;;6.82;1.77;;;;;;;;;;4977981;28;20045;-78
2022/09/16 08:25:00;;;;;;;6.00;1.58;;;;;;;;;;4987975;28;20049;-78
2022/09/16 08:27:26;;;;;;;4.53;1.67;;;;;;;;;;4986973;28;20031;-78
2022/09/16 08:29:52;;;;;;;6.45;1.45;;;;;;;;;;4988412;28;20038;-78
2022/09/16 08:32:18;;;;;;;5.18;1.60;;;;;;;;;;4987902;28;20046;-78
2022/09/16 08:34:44;;;;;;;4.63;1.50;;;;;;;;;;4982092;28;20092;-78
2022/09/16 08:37:10;;;;;;;6.35;2.13;;;;;;;;;;4982043;28;20073;-78
2022/09/16 08:39:36;;;;;;;6.47;1.98;;;;;;;;;;4989113;28;20533;-78
2022/09/16 08:42:08;;;;;;;5.88;1.75;;;;;;;;;;4982473;28;20058;-78
2022/09/16 08:44:54;;;;;;;8.32;2.03;;;;;;;;;;4986442;28;20118;-78
2022/09/16 08:47:26;;;;;;;5.75;1.98;;;;;;;;;;4983307;28;20492;-78
2022/09/16 08:49:53;;;;;;;;;;;;;;;;;;4988308;28;20093;-77
2022/09/16 08:52:24;;;;;;;4.80;1.65;;;;;;;;;;4983725;28;19917;-78
2022/09/16 08:54:52;;;;;;;6.35;1.77;;;;;;;;;;4976629;28;20035;-78
2022/09/16 08:57:20;;;;;;;4.43;1.80;;;;;;;;;;4978839;28;20053;-78
2022/09/16 08:59:52;;;;;;;3.83;1.70;;;;;;;;;;4979205;28;20038;-78
2022/09/16 09:02:36;;;;;;;4.93;1.60;;;;;;;;;;4985978;28;20034;-78
2022/09/16 09:05:02;;;;;;;3.05;1.77;;;;;;;;;;4978450;28;20039;-78
2022/09/16 09:07:31;;;;;;;6.28;1.83;;;;;;;;;;4981075;28;20054;-78
2022/09/16 09:10:13;;;;;;;3.85;1.42;;;;;;;;;;4988911;28;20089;-78
2022/09/16 09:12:42;;;;;;;5.05;1.70;;;;;;;;;;4983265;28;20719;-78
2022/09/16 09:15:15;;;;;;;3.30;1.67;;;;;;;;;;4985544;28;20049;-78
2022/09/16 09:18:11;;;;;;;3.90;1.50;;;;;;;;;;4981790;28;20034;-78
2022/09/16 09:20:39;;;;;;;5.80;2.20;;;;;;;;;;4933758;28;20039;-78
2022/09/16 09:23:18;;;;;;;4.07;1.95;;;;;;;;;;4984820;28;20077;-78
2022/09/16 09:26:02;;;;;;;5.68;1.98;;;;;;;;;;4979422;28;20034;-78
2022/09/16 09:28:43;;;;;;;4.43;1.92;;;;;;;;;;4985165;28;20622;-78
2022/09/16 09:31:25;;;;;;;7.22;2.33;;;;;;;;;;4978248;28;20111;-78
2022/09/16 09:34:09;;;;;;;5.20;1.85;;;;;;;;;;4975681;28;20035;-78
2022/09/16 09:36:35;;;;;;;4.57;2.00;;;;;;;;;;4982168;28;20031;-78
2022/09/16 09:39:13;;;;;;;2.67;1.55;;;;;;;;;;4976236;28;20469;-79
2022/09/16 09:41:43;;;;;;;3.70;2.08;;;;;;;;;;4983396;28;20034;-78
2022/09/16 09:44:27;;;;;;;4.35;1.85;;;;;;;;;;4985421;28;20492;-79
2022/09/16 09:46:55;;;;;;;4.43;1.90;;;;;;;;;;4977864;28;20138;-79
2022/09/16 09:49:36;;;;;;;5.47;2.03;;;;;;;;;;4986871;28;20034;-79
2022/09/16 09:52:11;;;;;;;7.20;2.30;;;;;;;;;;4984639;28;20038;-78
2022/09/16 09:54:38;;;;;;;4.45;1.75;;;;;;;;;;4982754;28;20034;-78
2022/09/16 09:57:10;;;;;;;4.47;1.90;;;;;;;;;;4983707;28;20034;-78
2022/09/16 09:59:51;;;;;;;4.55;1.80;;;;;;;;;;4983602;28;20058;-78
2022/09/16 10:02:19;;;;;;;6.97;1.95;;;;;;;;;;4980205;28;20037;-77
2022/09/16 10:04:45;;;;;;;4.40;2.00;;;;;;;;;;4982878;28;20042;-78
2022/09/16 10:07:17;;;;;;;4.97;1.90;;;;;;;;;;4978803;28;20377;-78
2022/09/16 10:09:53;;;;;;;4.78;1.80;;;;;;;;;;4975246;28;20039;-78
2022/09/16 10:12:33;;;;;;;4.63;2.25;;;;;;;;;;4980523;28;20064;-78
2022/09/16 10:15:00;;;;;;;5.38;2.10;;;;;;;;;;4979223;28;20046;-78
2022/09/16 10:17:28;;;;;;;8.60;1.98;;;;;;;;;;4982566;28;20375;-78
2022/09/16 10:19:59;;;;;;;5.22;2.08;;;;;;;;;;4982408;28;20042;-78
2022/09/16 10:22:26;;;;;;;4.78;1.92;;;;;;;;;;4979884;28;20031;-77
2022/09/16 10:24:57;;;;;;;4.25;1.77;;;;;;;;;;4975144;28;20117;-78
2022/09/16 10:27:41;;;;;;;3.97;1.60;;;;;;;;;;4981244;28;20042;-78
2022/09/16 10:30:14;;;;;;;4.95;1.65;;;;;;;;;;4981111;28;20089;-78
2022/09/16 10:32:49;;;;;;;4.20;1.58;;;;;;;;;;4986811;28;20038;-78
2022/09/16 10:35:20;;;;;;;3.25;1.60;;;;;;;;;;4980617;28;20703;-78
2022/09/16 10:37:51;;;;;;;4.20;1.80;;;;;;;;;;4981669;28;20023;-78
2022/09/16 10:40:18;;;;;;;3.80;1.58;;;;;;;;;;4980969;28;20127;-78
2022/09/16 10:42:46;;;;;;;3.83;1.60;;;;;;;;;;4984234;28;20058;-78
2022/09/16 10:45:15;;;;;;;4.80;1.88;;;;;;;;;;4980973;28;20047;-78
2022/09/16 10:47:48;;;;;;;3.63;1.50;;;;;;;;;;4987024;28;20380;-78
2022/09/16 10:50:18;;;;;;;5.57;1.58;;;;;;;;;;4979047;28;20543;-77
2022/09/16 10:52:45;;;;;;;4.75;1.83;;;;;;;;;;4986351;28;20041;-78
2022/09/16 10:55:20;;;;;;;4.32;1.40;;;;;;;;;;4984621;28;20070;-78
2022/09/16 10:57:47;;;;;;;3.88;1.40;;;;;;;;;;4987305;28;20121;-78
2022/09/16 11:00:13;;;;;;;3.83;1.70;;;;;;;;;;4986557;28;20038;-78
2022/09/16 11:02:39;;;;;;;5.43;1.92;;;;;;;;;;4984188;28;20462;-78
2022/09/16 11:05:18;;;;;;;6.78;1.85;;;;;;;;;;4983255;28;20046;-78
2022/09/16 11:07:47;;;;;;;6.13;2.20;;;;;;;;;;4987359;28;20089;-78
2022/09/16 11:10:16;;;;;;;6.78;1.98;;;;;;;;;;4982924;28;20038;-78
2022/09/16 11:12:48;;;;;;;5.20;1.80;;;;;;;;;;4981446;28;20030;-78
2022/09/16 11:15:14;;;;;;;6.00;2.08;;;;;;;;;;4987296;28;20043;-78
2022/09/16 11:17:46;;;;;;;9.00;1.92;;;;;;;;;;4982203;28;20109;-77
2022/09/16 11:20:12;;;;;;;4.18;1.70;;;;;;;;;;4987994;28;20062;-78
2022/09/16 11:22:41;;;;;;;4.40;1.80;;;;;;;;;;4983807;28;20076;-78
2022/09/16 11:25:07;;;;;;;4.07;1.48;;;;;;;;;;4988187;28;20053;-78
2022/09/16 11:27:40;;;;;;;3.75;1.70;;;;;;;;;;4980074;28;20034;-78
2022/09/16 11:30:12;;;;;;;5.70;1.77;;;;;;;;;;4988122;28;20480;-78
2022/09/16 11:32:47;;;;;;;4.70;1.70;;;;;;;;;;4987860;28;20030;-78
2022/09/16 11:35:33;;;;;;;4.03;1.67;;;;;;;;;;4988901;28;20046;-78
2022/09/16 11:37:59;;;;;;;3.75;1.52;;;;;;;;;;4984822;28;20068;-78
2022/09/16 11:40:44;;;;;;;6.15;1.40;;;;;;;;;;4981983;28;20062;-78
2022/09/16 11:43:10;;;;;;;4.63;1.60;;;;;;;;;;4981611;28;20046;-78
2022/09/16 11:45:46;;;;;;;4.07;1.88;;;;;;;;;;4986678;28;20034;-78
2022/09/16 11:48:22;;;;;;;7.55;1.90;;;;;;;;;;4989448;28;20500;-78
2022/09/16 11:51:11;;;;;;;5.70;1.65;;;;;;;;;;4979699;28;20050;-78
2022/09/16 11:53:55;;;;;;;8.00;1.88;;;;;;;;;;4985331;28;20037;-78
2022/09/16 11:56:29;;;;;;;4.75;1.67;;;;;;;;;;4986350;28;20125;-78
2022/09/16 11:58:55;;;;;;;4.82;1.77;;;;;;;;;;4980032;28;20589;-78
2022/09/16 12:01:43;;;;;;;4.53;1.83;;;;;;;;;;4983628;28;20034;-78
2022/09/16 12:04:12;;;;;;;6.47;1.60;;;;;;;;;;4981693;28;20034;-78
2022/09/16 12:06:50;;;;;;;4.32;1.60;;;;;;;;;;4973020;28;20520;-78
2022/09/16 12:09:24;;;;;;;4.38;1.40;;;;;;;;;;4963742;28;20050;-78
2022/09/16 12:11:52;;;;;;;3.70;1.63;;;;;;;;;;4966106;28;20416;-78
2022/09/16 12:14:22;;;;;;;6.30;2.03;;;;;;;;;;4966458;28;20056;-78
2022/09/16 12:16:54;;;;;;;7.32;1.85;;;;;;;;;;4965531;28;20046;-78
2022/09/16 12:19:27;;;;;;;4.15;1.73;;;;;;;;;;4971768;28;20035;-78
2022/09/16 12:22:01;;;;;;;6.22;2.03;;;;;;;;;;4973210;28;20123;-78
2022/09/16 12:24:40;;;;;;;8.07;1.98;;;;;;;;;;4961962;28;20028;-78
2022/09/16 12:27:10;;;;;;;5.60;2.00;;;;;;;;;;4965734;28;20644;-78
2022/09/16 12:29:55;;;;;;;5.65;1.75;;;;;;;;;;4961453;28;20058;-78
2022/09/16 12:32:26;;;;;;;4.93;1.83;;;;;;;;;;4966123;28;20064;-78
2022/09/16 12:35:04;;;;;;;5.87;1.83;;;;;;;;;;4966078;28;20027;-78
2022/09/16 12:37:33;;;;;;;5.20;1.90;;;;;;;;;;4967586;28;20481;-78
2022/09/16 12:40:00;;;;;;;5.80;1.60;;;;;;;;;;4970501;28;20046;-78
2022/09/16 12:42:38;;;;;;;4.65;1.60;;;;;;;;;;4953264;28;20885;-78
2022/09/16 12:45:04;;;;;;;5.47;1.90;;;;;;;;;;4962453;28;20118;-78
2022/09/16 12:47:49;;;;;;;4.38;1.67;;;;;;;;;;4965797;28;20141;-78
2022/09/16 12:50:20;;;;;;;4.47;1.38;;;;;;;;;;4956614;28;20051;-78
2022/09/16 12:53:05;;;;;;;7.07;2.08;;;;;;;;;;4970607;28;20030;-78
2022/09/16 12:55:38;;;;;;;4.38;1.98;;;;;;;;;;4963678;28;20039;-78
2022/09/16 12:58:07;;;;;;;4.90;1.77;;;;;;;;;;4960399;28;20059;-78
2022/09/16 13:00:41;;;;;;;6.60;1.90;;;;;;;;;;4967401;28;20464;-78
2022/09/16 13:03:16;;;;;;;5.75;2.00;;;;;;;;;;4960702;28;20030;-77
2022/09/16 13:05:44;;;;;;;4.20;1.80;;;;;;;;;;4961904;28;20113;-78
2022/09/16 13:08:20;;;;;;;5.85;1.88;;;;;;;;;;4964249;28;20122;-77
2022/09/16 13:10:54;;;;;;;7.50;1.95;;;;;;;;;;4957785;28;20086;-78
2022/09/16 13:13:24;;;;;;;6.45;2.03;;;;;;;;;;4958075;28;20049;-77
2022/09/16 13:15:58;;;;;;;4.72;1.40;;;;;;;;;;4957046;28;20089;-77
2022/09/16 13:18:26;;;;;;;3.67;1.40;;;;;;;;;;4968010;28;20045;-78
2022/09/16 13:20:59;;;;;;;4.45;1.63;;;;;;;;;;4974486;28;20027;-78
2022/09/16 13:23:33;;;;;;;4.95;1.83;;;;;;;;;;4964446;28;20519;-77
2022/09/16 13:25:59;;;;;;;3.00;1.40;;;;;;;;;;4963702;28;20053;-76
2022/09/16 13:28:25;;;;;;;4.15;1.63;;;;;;;;;;4962602;28;20043;-76
2022/09/16 13:30:51;;;;;;;3.65;1.38;;;;;;;;;;4965929;28;20046;-76
2022/09/16 13:33:18;;;;;;;3.67;1.60;;;;;;;;;;4963573;28;20035;-75
2022/09/16 13:35:48;;;;;;;3.13;1.38;;;;;;;;;;4969262;28;20029;-76
2022/09/16 13:38:14;;;;;;;4.25;1.52;;;;;;;;;;4962351;28;20035;-76
2022/09/16 13:40:52;;;;;;;7.68;1.67;;;;;;;;;;4963529;28;20043;-76
2022/09/16 13:43:27;;;;;;;9.10;2.00;;;;;;;;;;4959560;28;20751;-76
2022/09/16 13:46:01;;;;;;;3.90;1.40;;;;;;;;;;4963567;28;20039;-76
2022/09/16 13:48:27;;;;;;;4.85;1.45;;;;;;;;;;4963783;28;20027;-76
2022/09/16 13:51:00;;;;;;;5.55;2.30;;;;;;;;;;4966689;28;20118;-76
2022/09/16 13:53:29;;;;;;;5.78;1.75;;;;;;;;;;4963624;28;20515;-76
2022/09/16 13:55:57;;;;;;;4.60;1.40;;;;;;;;;;4966278;28;20039;-76
2022/09/16 13:58:23;;;;;;;8.32;2.05;;;;;;;;;;4967393;28;20474;-77
2022/09/16 14:00:57;;;;;;;5.43;1.42;;;;;;;;;;4964768;28;20512;-76
2022/09/16 14:03:38;;;;;;;6.18;2.15;;;;;;;;;;4960348;28;20465;-77
2022/09/16 14:06:12;;;;;;;5.70;2.00;;;;;;;;;;4967554;28;20047;-76
2022/09/16 14:08:54;;;;;;;5.25;1.52;;;;;;;;;;4969448;28;20039;-76
2022/09/16 14:11:26;;;;;;;9.25;2.22;;;;;;;;;;4965925;28;20031;-76
2022/09/16 14:13:55;;;;;;;5.20;1.80;;;;;;;;;;4967269;28;20075;-76
2022/09/16 14:16:25;;;;;;;8.30;1.75;;;;;;;;;;4962087;28;20042;-76
2022/09/16 14:19:03;;;;;;;7.57;2.10;;;;;;;;;;4968387;28;20026;-75
2022/09/16 14:21:30;;;;;;;7.43;1.75;;;;;;;;;;4967994;28;20038;-76
2022/09/16 14:24:07;;;;;;;4.47;1.42;;;;;;;;;;4963295;28;20131;-77
2022/09/16 14:26:33;;;;;;;3.45;1.55;;;;;;;;;;4961810;28;20018;-76
2022/09/16 14:29:04;;;;;;;4.85;1.77;;;;;;;;;;4958682;28;20042;-76
2022/09/16 14:31:31;;;;;;;4.75;1.60;;;;;;;;;;4960310;28;20102;-75
2022/09/16 14:34:00;;;;;;;5.22;2.15;;;;;;;;;;4964879;28;20046;-77
2022/09/16 14:36:28;;;;;;;6.03;1.83;;;;;;;;;;4964113;28;20370;-77
2022/09/16 14:38:57;;;;;;;5.10;1.75;;;;;;;;;;4960962;28;20074;-76
2022/09/16 14:41:43;;;;;;;6.63;2.20;;;;;;;;;;4970051;28;20031;-76
2022/09/16 14:44:09;;;;;;;5.03;1.60;;;;;;;;;;4963739;28;20050;-76
2022/09/16 14:46:41;;;;;;;5.10;1.75;;;;;;;;;;4966946;28;20026;-76
2022/09/16 14:49:09;;;;;;;6.03;1.73;;;;;;;;;;4965366;28;20038;-76
2022/09/16 14:51:36;;;;;;;6.32;1.92;;;;;;;;;;4970641;28;20039;-76
2022/09/16 14:54:02;;;;;;;8.55;2.42;;;;;;;;;;4963199;28;20031;-76
2022/09/16 14:56:28;;;;;;;6.78;1.90;;;;;;;;;;4949759;28;20138;-76
2022/09/16 14:58:54;;;;;;;5.05;1.85;;;;;;;;;;4964271;28;20106;-76